createdAt,value
2023-05-23T16:26:05.012Z,72.17
2023-05-23T16:29:14.219Z,72.82
2023-05-23T16:32:22.778Z,74.04
2023-05-23T16:35:31.369Z,74.51
2023-05-23T16:38:41.327Z,74.48
2023-05-23T16:41:49.250Z,72.82
2023-05-23T16:44:57.087Z,73.12
2023-05-23T16:48:06.449Z,70.21
2023-05-23T16:51:13.371Z,70.86
2023-05-23T16:54:21.476Z,71.57
2023-05-23T16:57:30.070Z,71.30
2023-05-23T17:00:37.618Z,71.53
2023-05-23T17:03:45.936Z,72.25
2023-05-23T17:06:54.817Z,74.99
2023-05-23T17:10:02.582Z,72.78
2023-05-23T17:13:10.211Z,73.33
2023-05-23T17:16:20.263Z,74.65
2023-05-23T17:19:19.210Z,74.96
2023-05-23T17:22:26.968Z,74.99
2023-05-23T17:25:34.230Z,74.48
2023-05-23T17:28:43.358Z,78.25
2023-05-23T17:31:50.570Z,74.38
2023-05-23T17:34:58.416Z,75.20
2023-05-23T17:38:06.723Z,73.80
2023-05-23T17:41:14.646Z,73.80
2023-05-23T17:44:22.928Z,75.70
2023-05-23T17:47:32.299Z,74.08
2023-05-23T17:50:39.499Z,75.40
2023-05-23T17:53:47.299Z,73.97
2023-05-23T17:56:54.641Z,74.08
2023-05-23T18:00:03.811Z,73.19
2023-05-23T18:03:11.525Z,73.30
2023-05-23T18:06:19.486Z,73.91
2023-05-23T18:09:28.909Z,73.80
2023-05-23T18:12:37.265Z,74.01
2023-05-23T18:15:44.283Z,72.82
2023-05-23T18:18:53.222Z,73.23
2023-05-23T18:22:00.651Z,72.92
2023-05-23T18:25:08.139Z,71.80
2023-05-23T18:28:17.659Z,73.54
2023-05-23T18:31:20.449Z,72.86
2023-05-23T18:34:29.269Z,73.50
2023-05-23T18:37:37.503Z,74.11
2023-05-23T18:40:46.870Z,73.03
2023-05-23T18:43:54.764Z,73.74
2023-05-23T18:47:02.817Z,74.76
2023-05-23T18:50:11.726Z,76.39
2023-05-23T18:53:19.465Z,75.82
2023-05-23T18:56:26.826Z,75.92
2023-05-23T18:59:35.971Z,75.95
2023-05-23T19:02:43.222Z,74.52
2023-05-23T19:05:50.981Z,75.34
2023-05-23T19:08:59.720Z,74.05
2023-05-23T19:12:07.864Z,74.66
2023-05-23T19:15:15.719Z,74.46
2023-05-23T19:18:23.316Z,75.78
2023-05-23T19:21:32.094Z,75.71
2023-05-23T19:24:40.552Z,76.84
2023-05-23T19:27:47.954Z,77.15
2023-05-23T19:30:49.087Z,75.10
2023-05-23T19:33:56.416Z,76.57
2023-05-23T19:37:03.876Z,76.37
2023-05-23T19:40:13.020Z,75.45
2023-05-23T19:43:20.285Z,77.12
2023-05-23T19:46:28.413Z,76.40
2023-05-23T19:49:37.102Z,76.81
2023-05-23T19:52:44.933Z,77.12
2023-05-23T19:55:53.040Z,77.67
2023-05-23T19:59:00.396Z,77.36
2023-05-23T20:02:10.195Z,77.39
2023-05-23T20:05:17.500Z,78.52
2023-05-23T20:08:25.287Z,77.39
2023-05-23T20:11:33.716Z,77.94
2023-05-23T20:14:41.383Z,78.05
2023-05-23T20:17:49.162Z,78.35
2023-05-23T20:20:58.377Z,78.35
2023-05-23T20:24:06.341Z,77.84
2023-05-23T20:27:14.512Z,78.28
2023-05-23T20:30:24.504Z,78.90
2023-05-23T20:33:31.865Z,79.00
2023-05-23T20:36:39.494Z,79.72
2023-05-23T20:39:49.093Z,79.14
2023-05-23T20:42:56.389Z,80.17
2023-05-23T20:46:04.296Z,80.27
2023-05-23T20:49:12.087Z,80.10
2023-05-23T20:52:21.248Z,80.31
2023-05-23T20:55:29.267Z,81.54
2023-05-23T20:58:37.173Z,81.43
2023-05-23T21:01:46.076Z,80.41
2023-05-23T21:04:54.042Z,81.13
2023-05-23T21:08:01.950Z,80.45
2023-05-23T21:11:11.093Z,81.37
2023-05-23T21:14:18.312Z,80.86
2023-05-23T21:17:26.063Z,81.57
2023-05-23T21:20:35.114Z,81.27
2023-05-23T21:23:42.042Z,81.68
2023-05-23T21:26:50.384Z,81.57
2023-05-23T21:29:58.427Z,81.37
2023-05-23T21:33:07.759Z,81.23
2023-05-23T21:36:15.335Z,82.26
2023-05-23T21:39:23.409Z,80.92
2023-05-23T21:42:31.745Z,80.31
2023-05-23T21:45:40.574Z,80.72
2023-05-23T21:48:48.517Z,81.23
2023-05-23T21:51:57.347Z,81.02
2023-05-23T21:55:05.032Z,81.78
2023-05-23T21:58:12.869Z,82.29
2023-05-23T22:01:21.592Z,82.81
2023-05-23T22:04:29.652Z,83.26
2023-05-23T22:07:37.277Z,83.26
2023-05-23T22:11:23.176Z,82.89
2023-05-23T22:14:32.873Z,83.50
2023-05-23T22:17:40.696Z,83.70
2023-05-23T22:20:48.163Z,84.32
2023-05-23T22:23:57.436Z,84.98
2023-05-23T22:27:05.815Z,85.39
2023-05-23T22:30:12.832Z,85.80
2023-05-23T22:33:22.708Z,85.46
2023-05-23T22:36:30.172Z,85.25
2023-05-23T22:39:37.537Z,85.55
2023-05-23T22:42:46.786Z,86.13
2023-05-23T22:45:53.807Z,85.21
2023-05-23T22:49:01.713Z,85.11
2023-05-23T22:52:10.496Z,84.28
2023-05-23T22:55:18.088Z,85.11
2023-05-23T22:58:24.904Z,84.90
2023-05-23T23:01:32.771Z,85.41
2023-05-23T23:04:41.537Z,85.31
2023-05-23T23:07:48.788Z,85.21
2023-05-23T23:10:55.805Z,86.33
2023-05-23T23:14:04.789Z,86.54
2023-05-23T23:17:12.574Z,85.93
2023-05-23T23:20:19.633Z,85.72
2023-05-23T23:23:28.748Z,85.93
2023-05-23T23:26:35.990Z,85.11
2023-05-23T23:29:43.830Z,85.76
2023-05-23T23:32:53.052Z,86.68
2023-05-23T23:35:59.867Z,86.83
2023-05-23T23:39:07.662Z,87.04
2023-05-23T23:42:15.278Z,87.79
2023-05-23T23:45:24.384Z,88.00
2023-05-23T23:48:32.118Z,88.51
2023-05-23T23:51:39.415Z,88.76
2023-05-23T23:54:48.657Z,88.96
2023-05-23T23:57:56.048Z,89.28
